sensor_id;sensor_type;location;lat;lon;timestamp;temperature;humidity
54158;DHT22;40065;49.894;10.358;2023-02-18T00:03:16;11.20;99.90
54158;DHT22;40065;49.894;10.358;2023-02-18T00:08:18;11.10;99.90
54158;DHT22;40065;49.894;10.358;2023-02-18T00:13:20;11.10;99.90
54158;DHT22;40065;49.894;10.358;2023-02-18T00:18:22;11.20;99.90
54158;DHT22;40065;49.894;10.358;2023-02-18T00:23:24;11.10;99.90
54158;DHT22;40065;49.894;10.358;2023-02-18T00:28:27;11.30;99.90
54158;DHT22;40065;49.894;10.358;2023-02-18T00:33:29;11.20;99.90
54158;DHT22;40065;49.894;10.358;2023-02-18T00:38:33;11.20;99.90
54158;DHT22;40065;49.894;10.358;2023-02-18T00:43:35;11.10;99.90
54158;DHT22;40065;49.894;10.358;2023-02-18T00:48:37;11.10;99.90
54158;DHT22;40065;49.894;10.358;2023-02-18T00:53:39;11.00;99.90
54158;DHT22;40065;49.894;10.358;2023-02-18T00:58:42;11.10;99.90
54158;DHT22;40065;49.894;10.358;2023-02-18T01:03:44;11.00;99.90
54158;DHT22;40065;49.894;10.358;2023-02-18T01:08:47;11.00;99.90
54158;DHT22;40065;49.894;10.358;2023-02-18T01:13:50;11.00;99.90
54158;DHT22;40065;49.894;10.358;2023-02-18T01:18:52;11.10;99.90
54158;DHT22;40065;49.894;10.358;2023-02-18T01:23:54;11.00;99.90
54158;DHT22;40065;49.894;10.358;2023-02-18T01:28:56;11.10;99.90
54158;DHT22;40065;49.894;10.358;2023-02-18T01:33:57;11.20;99.90
54158;DHT22;40065;49.894;10.358;2023-02-18T01:39:04;11.20;99.90
54158;DHT22;40065;49.894;10.358;2023-02-18T01:49:26;11.20;99.90
54158;DHT22;40065;49.894;10.358;2023-02-18T01:54:32;11.10;99.90
54158;DHT22;40065;49.894;10.358;2023-02-18T01:59:45;11.10;99.90
54158;DHT22;40065;49.894;10.358;2023-02-18T02:04:48;11.10;99.90
54158;DHT22;40065;49.894;10.358;2023-02-18T02:09:51;11.20;99.90
54158;DHT22;40065;49.894;10.358;2023-02-18T02:25:18;11.20;99.90
54158;DHT22;40065;49.894;10.358;2023-02-18T02:30:39;11.20;99.90
54158;DHT22;40065;49.894;10.358;2023-02-18T02:36:02;11.00;99.90
54158;DHT22;40065;49.894;10.358;2023-02-18T02:51:46;10.90;99.90
54158;DHT22;40065;49.894;10.358;2023-02-18T03:02:43;10.90;99.90
54158;DHT22;40065;49.894;10.358;2023-02-18T03:19:05;10.90;99.90
54158;DHT22;40065;49.894;10.358;2023-02-18T03:24:19;10.90;99.90
54158;DHT22;40065;49.894;10.358;2023-02-18T03:29:24;11.00;99.90
54158;DHT22;40065;49.894;10.358;2023-02-18T03:34:30;11.10;99.90
54158;DHT22;40065;49.894;10.358;2023-02-18T03:39:34;11.20;99.90
54158;DHT22;40065;49.894;10.358;2023-02-18T03:44:37;11.10;99.90
54158;DHT22;40065;49.894;10.358;2023-02-18T03:49:39;11.10;99.90
54158;DHT22;40065;49.894;10.358;2023-02-18T03:54:41;11.20;99.90
54158;DHT22;40065;49.894;10.358;2023-02-18T03:59:43;11.10;99.90
54158;DHT22;40065;49.894;10.358;2023-02-18T04:04:44;11.10;99.90
54158;DHT22;40065;49.894;10.358;2023-02-18T04:09:46;11.10;99.90
54158;DHT22;40065;49.894;10.358;2023-02-18T04:14:48;11.20;99.90
54158;DHT22;40065;49.894;10.358;2023-02-18T04:19:52;11.20;99.90
54158;DHT22;40065;49.894;10.358;2023-02-18T04:24:54;11.00;99.90
54158;DHT22;40065;49.894;10.358;2023-02-18T04:29:56;11.10;99.90
54158;DHT22;40065;49.894;10.358;2023-02-18T04:34:58;11.10;99.90
54158;DHT22;40065;49.894;10.358;2023-02-18T04:40:00;11.20;99.90
54158;DHT22;40065;49.894;10.358;2023-02-18T04:45:02;11.20;99.90
54158;DHT22;40065;49.894;10.358;2023-02-18T04:50:05;11.10;99.90
54158;DHT22;40065;49.894;10.358;2023-02-18T04:55:07;11.10;99.90
54158;DHT22;40065;49.894;10.358;2023-02-18T05:00:14;11.20;99.90
54158;DHT22;40065;49.894;10.358;2023-02-18T05:05:16;11.10;99.90
54158;DHT22;40065;49.894;10.358;2023-02-18T05:10:19;11.20;99.90
54158;DHT22;40065;49.894;10.358;2023-02-18T05:15:21;11.10;99.90
54158;DHT22;40065;49.894;10.358;2023-02-18T05:20:23;11.00;99.90
54158;DHT22;40065;49.894;10.358;2023-02-18T05:25:25;11.00;99.90
54158;DHT22;40065;49.894;10.358;2023-02-18T05:30:26;11.10;99.90
54158;DHT22;40065;49.894;10.358;2023-02-18T05:35:28;11.10;99.90
54158;DHT22;40065;49.894;10.358;2023-02-18T05:40:30;11.10;99.90
54158;DHT22;40065;49.894;10.358;2023-02-18T05:45:32;11.10;99.90
54158;DHT22;40065;49.894;10.358;2023-02-18T05:50:34;11.10;99.90
54158;DHT22;40065;49.894;10.358;2023-02-18T05:55:36;11.00;99.90
54158;DHT22;40065;49.894;10.358;2023-02-18T06:00:39;11.10;99.90
54158;DHT22;40065;49.894;10.358;2023-02-18T06:05:41;11.10;99.90
54158;DHT22;40065;49.894;10.358;2023-02-18T06:10:43;11.10;99.90
54158;DHT22;40065;49.894;10.358;2023-02-18T06:15:45;11.00;99.90
54158;DHT22;40065;49.894;10.358;2023-02-18T06:20:47;10.90;99.90
54158;DHT22;40065;49.894;10.358;2023-02-18T06:25:49;10.90;99.90
54158;DHT22;40065;49.894;10.358;2023-02-18T06:30:51;11.00;99.90
54158;DHT22;40065;49.894;10.358;2023-02-18T06:35:55;11.00;99.90
54158;DHT22;40065;49.894;10.358;2023-02-18T06:40:57;11.00;99.90
54158;DHT22;40065;49.894;10.358;2023-02-18T06:45:59;11.10;99.90
54158;DHT22;40065;49.894;10.358;2023-02-18T06:51:00;11.10;99.90
54158;DHT22;40065;49.894;10.358;2023-02-18T06:56:02;10.90;99.90
54158;DHT22;40065;49.894;10.358;2023-02-18T07:01:05;10.90;99.90
54158;DHT22;40065;49.894;10.358;2023-02-18T07:06:07;11.00;99.90
54158;DHT22;40065;49.894;10.358;2023-02-18T07:11:10;11.10;99.90
54158;DHT22;40065;49.894;10.358;2023-02-18T07:16:12;11.00;99.90
54158;DHT22;40065;49.894;10.358;2023-02-18T07:21:14;11.00;99.90
54158;DHT22;40065;49.894;10.358;2023-02-18T07:26:16;11.10;99.90
54158;DHT22;40065;49.894;10.358;2023-02-18T07:31:18;11.20;99.90
54158;DHT22;40065;49.894;10.358;2023-02-18T07:36:20;11.10;99.90
54158;DHT22;40065;49.894;10.358;2023-02-18T07:41:22;11.20;99.90
54158;DHT22;40065;49.894;10.358;2023-02-18T07:46:24;11.30;99.90
54158;DHT22;40065;49.894;10.358;2023-02-18T07:51:26;11.30;99.90
54158;DHT22;40065;49.894;10.358;2023-02-18T07:56:28;11.30;99.90
54158;DHT22;40065;49.894;10.358;2023-02-18T08:01:30;11.40;99.90
54158;DHT22;40065;49.894;10.358;2023-02-18T08:06:37;11.40;99.90
54158;DHT22;40065;49.894;10.358;2023-02-18T08:11:40;11.50;99.90
54158;DHT22;40065;49.894;10.358;2023-02-18T08:16:42;11.70;99.90
54158;DHT22;40065;49.894;10.358;2023-02-18T08:21:43;11.70;99.90
54158;DHT22;40065;49.894;10.358;2023-02-18T08:26:46;12.60;99.90
54158;DHT22;40065;49.894;10.358;2023-02-18T08:32:01;14.10;99.90
54158;DHT22;40065;49.894;10.358;2023-02-18T08:37:03;15.30;99.90
54158;DHT22;40065;49.894;10.358;2023-02-18T08:42:05;14.40;99.90
54158;DHT22;40065;49.894;10.358;2023-02-18T08:47:07;14.40;99.90
54158;DHT22;40065;49.894;10.358;2023-02-18T08:52:28;14.50;99.90
54158;DHT22;40065;49.894;10.358;2023-02-18T08:57:30;13.50;99.90
54158;DHT22;40065;49.894;10.358;2023-02-18T09:02:32;12.90;99.90
54158;DHT22;40065;49.894;10.358;2023-02-18T09:07:35;13.00;99.90
54158;DHT22;40065;49.894;10.358;2023-02-18T09:12:37;12.70;99.90
54158;DHT22;40065;49.894;10.358;2023-02-18T09:17:39;12.20;99.90
54158;DHT22;40065;49.894;10.358;2023-02-18T09:22:40;12.00;99.90
54158;DHT22;40065;49.894;10.358;2023-02-18T09:27:42;12.10;99.90
54158;DHT22;40065;49.894;10.358;2023-02-18T09:32:44;12.20;99.90
54158;DHT22;40065;49.894;10.358;2023-02-18T09:37:46;12.10;99.90
54158;DHT22;40065;49.894;10.358;2023-02-18T09:42:48;12.30;99.90
54158;DHT22;40065;49.894;10.358;2023-02-18T09:47:50;12.30;99.90
54158;DHT22;40065;49.894;10.358;2023-02-18T09:52:53;12.30;99.90
54158;DHT22;40065;49.894;10.358;2023-02-18T09:57:58;12.20;99.90
54158;DHT22;40065;49.894;10.358;2023-02-18T10:08:22;12.40;99.90
54158;DHT22;40065;49.894;10.358;2023-02-18T10:13:28;12.50;99.90
54158;DHT22;40065;49.894;10.358;2023-02-18T10:18:33;12.60;99.90
54158;DHT22;40065;49.894;10.358;2023-02-18T10:23:52;12.70;99.90
54158;DHT22;40065;49.894;10.358;2023-02-18T10:28:55;12.80;99.90
54158;DHT22;40065;49.894;10.358;2023-02-18T10:34:12;12.70;99.90
54158;DHT22;40065;49.894;10.358;2023-02-18T10:39:42;12.70;99.90
54158;DHT22;40065;49.894;10.358;2023-02-18T10:50:39;12.60;99.90
54158;DHT22;40065;49.894;10.358;2023-02-18T10:55:44;12.70;99.90
54158;DHT22;40065;49.894;10.358;2023-02-18T11:00:47;12.80;99.90
54158;DHT22;40065;49.894;10.358;2023-02-18T11:05:55;12.90;99.90
54158;DHT22;40065;49.894;10.358;2023-02-18T11:10:57;12.90;99.90
54158;DHT22;40065;49.894;10.358;2023-02-18T11:16:03;12.90;99.90
54158;DHT22;40065;49.894;10.358;2023-02-18T11:21:36;12.80;99.90
54158;DHT22;40065;49.894;10.358;2023-02-18T11:26:38;12.90;99.90
54158;DHT22;40065;49.894;10.358;2023-02-18T11:31:43;13.00;99.90
54158;DHT22;40065;49.894;10.358;2023-02-18T11:36:48;13.00;99.90
54158;DHT22;40065;49.894;10.358;2023-02-18T11:42:06;12.90;99.90
54158;DHT22;40065;49.894;10.358;2023-02-18T11:52:19;12.40;99.90
54158;DHT22;40065;49.894;10.358;2023-02-18T11:57:22;12.50;99.90
54158;DHT22;40065;49.894;10.358;2023-02-18T12:02:36;12.50;99.90
54158;DHT22;40065;49.894;10.358;2023-02-18T12:08:19;12.70;99.90
54158;DHT22;40065;49.894;10.358;2023-02-18T12:13:31;12.70;99.90
54158;DHT22;40065;49.894;10.358;2023-02-18T12:45:12;13.10;99.90
54158;DHT22;40065;49.894;10.358;2023-02-18T12:50:39;13.10;99.90
54158;DHT22;40065;49.894;10.358;2023-02-18T13:01:31;13.40;99.90
54158;DHT22;40065;49.894;10.358;2023-02-18T13:17:10;13.40;99.90
54158;DHT22;40065;49.894;10.358;2023-02-18T13:22:14;13.50;99.90
54158;DHT22;40065;49.894;10.358;2023-02-18T13:27:29;13.30;99.90
54158;DHT22;40065;49.894;10.358;2023-02-18T13:32:41;13.20;99.90
54158;DHT22;40065;49.894;10.358;2023-02-18T13:43:34;12.80;99.90
54158;DHT22;40065;49.894;10.358;2023-02-18T13:48:45;12.80;99.90
54158;DHT22;40065;49.894;10.358;2023-02-18T13:53:50;12.90;99.90
54158;DHT22;40065;49.894;10.358;2023-02-18T14:09:43;12.50;99.90
54158;DHT22;40065;49.894;10.358;2023-02-18T14:14:45;12.70;99.90
54158;DHT22;40065;49.894;10.358;2023-02-18T14:35:47;12.70;99.90
54158;DHT22;40065;49.894;10.358;2023-02-18T14:41:10;12.60;99.90
54158;DHT22;40065;49.894;10.358;2023-02-18T14:51:22;12.50;99.90
54158;DHT22;40065;49.894;10.358;2023-02-18T14:56:25;12.40;99.90
54158;DHT22;40065;49.894;10.358;2023-02-18T15:01:30;12.50;99.90
54158;DHT22;40065;49.894;10.358;2023-02-18T15:06:34;12.40;99.90
54158;DHT22;40065;49.894;10.358;2023-02-18T15:11:39;12.40;99.90
54158;DHT22;40065;49.894;10.358;2023-02-18T15:16:43;12.30;99.90
54158;DHT22;40065;49.894;10.358;2023-02-18T15:21:48;12.30;99.90
54158;DHT22;40065;49.894;10.358;2023-02-18T15:26:51;12.20;99.90
54158;DHT22;40065;49.894;10.358;2023-02-18T15:31:55;12.20;99.90
54158;DHT22;40065;49.894;10.358;2023-02-18T15:37:04;12.00;99.90
54158;DHT22;40065;49.894;10.358;2023-02-18T15:42:29;12.00;99.90
54158;DHT22;40065;49.894;10.358;2023-02-18T15:47:31;11.90;99.90
54158;DHT22;40065;49.894;10.358;2023-02-18T15:52:37;11.90;99.90
54158;DHT22;40065;49.894;10.358;2023-02-18T15:57:40;11.90;99.90
54158;DHT22;40065;49.894;10.358;2023-02-18T16:02:55;11.80;99.90
54158;DHT22;40065;49.894;10.358;2023-02-18T16:08:00;11.90;99.90
54158;DHT22;40065;49.894;10.358;2023-02-18T16:13:03;11.80;99.90
54158;DHT22;40065;49.894;10.358;2023-02-18T16:18:20;11.80;99.90
54158;DHT22;40065;49.894;10.358;2023-02-18T16:23:34;11.70;99.90
54158;DHT22;40065;49.894;10.358;2023-02-18T16:28:40;11.60;99.90
54158;DHT22;40065;49.894;10.358;2023-02-18T16:33:42;11.70;99.90
54158;DHT22;40065;49.894;10.358;2023-02-18T16:38:44;11.50;99.90
54158;DHT22;40065;49.894;10.358;2023-02-18T16:43:46;11.50;99.90
54158;DHT22;40065;49.894;10.358;2023-02-18T16:48:49;11.50;99.90
54158;DHT22;40065;49.894;10.358;2023-02-18T16:53:51;11.50;99.90
54158;DHT22;40065;49.894;10.358;2023-02-18T16:58:53;11.40;99.90
54158;DHT22;40065;49.894;10.358;2023-02-18T17:03:56;11.30;99.90
54158;DHT22;40065;49.894;10.358;2023-02-18T17:08:59;11.30;99.90
54158;DHT22;40065;49.894;10.358;2023-02-18T17:14:01;11.40;99.90
54158;DHT22;40065;49.894;10.358;2023-02-18T17:19:05;11.30;99.90
54158;DHT22;40065;49.894;10.358;2023-02-18T17:24:16;11.30;99.90
54158;DHT22;40065;49.894;10.358;2023-02-18T17:29:18;11.20;99.90
54158;DHT22;40065;49.894;10.358;2023-02-18T17:34:26;11.30;99.90
54158;DHT22;40065;49.894;10.358;2023-02-18T17:39:28;11.30;99.90
54158;DHT22;40065;49.894;10.358;2023-02-18T17:44:31;11.20;99.90
54158;DHT22;40065;49.894;10.358;2023-02-18T17:49:33;11.20;99.90
54158;DHT22;40065;49.894;10.358;2023-02-18T17:54:35;11.20;99.90
54158;DHT22;40065;49.894;10.358;2023-02-18T17:59:37;11.20;99.90
54158;DHT22;40065;49.894;10.358;2023-02-18T18:04:38;11.10;99.90
54158;DHT22;40065;49.894;10.358;2023-02-18T18:09:40;11.00;99.90
54158;DHT22;40065;49.894;10.358;2023-02-18T18:14:42;11.10;99.90
54158;DHT22;40065;49.894;10.358;2023-02-18T18:19:44;11.20;99.90
54158;DHT22;40065;49.894;10.358;2023-02-18T18:24:45;11.20;99.90
54158;DHT22;40065;49.894;10.358;2023-02-18T18:29:47;11.20;99.90
54158;DHT22;40065;49.894;10.358;2023-02-18T18:34:49;11.20;99.90
54158;DHT22;40065;49.894;10.358;2023-02-18T18:39:51;11.20;99.90
54158;DHT22;40065;49.894;10.358;2023-02-18T18:44:53;11.20;99.90
54158;DHT22;40065;49.894;10.358;2023-02-18T18:49:54;11.10;99.90
54158;DHT22;40065;49.894;10.358;2023-02-18T18:54:56;11.20;99.90
54158;DHT22;40065;49.894;10.358;2023-02-18T18:59:58;11.20;99.90
54158;DHT22;40065;49.894;10.358;2023-02-18T19:05:00;11.20;99.90
54158;DHT22;40065;49.894;10.358;2023-02-18T19:10:05;11.20;99.90
54158;DHT22;40065;49.894;10.358;2023-02-18T19:15:18;11.10;99.90
54158;DHT22;40065;49.894;10.358;2023-02-18T19:20:23;11.10;99.90
54158;DHT22;40065;49.894;10.358;2023-02-18T19:25:26;11.10;99.90
54158;DHT22;40065;49.894;10.358;2023-02-18T19:30:33;11.20;99.90
54158;DHT22;40065;49.894;10.358;2023-02-18T19:35:38;11.20;99.90
54158;DHT22;40065;49.894;10.358;2023-02-18T19:40:40;11.20;99.90
54158;DHT22;40065;49.894;10.358;2023-02-18T19:45:45;11.10;99.90
54158;DHT22;40065;49.894;10.358;2023-02-18T19:50:47;11.10;99.90
54158;DHT22;40065;49.894;10.358;2023-02-18T19:55:56;11.20;99.90
54158;DHT22;40065;49.894;10.358;2023-02-18T20:00:58;11.20;99.90
54158;DHT22;40065;49.894;10.358;2023-02-18T20:05:59;11.10;99.90
54158;DHT22;40065;49.894;10.358;2023-02-18T20:11:01;11.00;99.90
54158;DHT22;40065;49.894;10.358;2023-02-18T20:16:07;11.00;99.90
54158;DHT22;40065;49.894;10.358;2023-02-18T20:21:10;11.00;99.90
54158;DHT22;40065;49.894;10.358;2023-02-18T20:26:13;11.00;99.90
54158;DHT22;40065;49.894;10.358;2023-02-18T20:31:15;11.00;99.90
54158;DHT22;40065;49.894;10.358;2023-02-18T20:36:17;11.10;99.90
54158;DHT22;40065;49.894;10.358;2023-02-18T20:41:20;11.10;99.90
54158;DHT22;40065;49.894;10.358;2023-02-18T20:46:22;11.20;99.90
54158;DHT22;40065;49.894;10.358;2023-02-18T20:51:25;11.20;99.90
54158;DHT22;40065;49.894;10.358;2023-02-18T20:56:27;11.00;99.90
54158;DHT22;40065;49.894;10.358;2023-02-18T21:01:29;11.10;99.90
54158;DHT22;40065;49.894;10.358;2023-02-18T21:06:30;11.10;99.90
54158;DHT22;40065;49.894;10.358;2023-02-18T21:11:32;11.10;99.90
54158;DHT22;40065;49.894;10.358;2023-02-18T21:16:35;11.20;99.90
54158;DHT22;40065;49.894;10.358;2023-02-18T21:21:40;11.20;99.90
54158;DHT22;40065;49.894;10.358;2023-02-18T21:26:42;11.20;99.90
54158;DHT22;40065;49.894;10.358;2023-02-18T21:31:44;11.20;99.90
54158;DHT22;40065;49.894;10.358;2023-02-18T21:36:46;11.30;99.90
54158;DHT22;40065;49.894;10.358;2023-02-18T21:41:48;11.30;99.90
54158;DHT22;40065;49.894;10.358;2023-02-18T21:46:49;11.40;99.90
54158;DHT22;40065;49.894;10.358;2023-02-18T21:51:51;11.20;99.90
54158;DHT22;40065;49.894;10.358;2023-02-18T21:57:17;11.20;99.90
54158;DHT22;40065;49.894;10.358;2023-02-18T22:02:25;11.20;99.90
54158;DHT22;40065;49.894;10.358;2023-02-18T22:07:28;11.10;99.90
54158;DHT22;40065;49.894;10.358;2023-02-18T22:12:30;11.10;99.90
54158;DHT22;40065;49.894;10.358;2023-02-18T22:17:33;11.20;99.90
54158;DHT22;40065;49.894;10.358;2023-02-18T22:22:35;11.20;99.90
54158;DHT22;40065;49.894;10.358;2023-02-18T22:27:37;11.20;99.90
54158;DHT22;40065;49.894;10.358;2023-02-18T22:32:38;11.00;99.90
54158;DHT22;40065;49.894;10.358;2023-02-18T22:37:40;11.10;99.90
54158;DHT22;40065;49.894;10.358;2023-02-18T22:42:42;11.20;99.90
54158;DHT22;40065;49.894;10.358;2023-02-18T22:47:44;11.20;99.90
54158;DHT22;40065;49.894;10.358;2023-02-18T22:52:45;11.00;99.90
54158;DHT22;40065;49.894;10.358;2023-02-18T22:57:47;11.00;99.90
54158;DHT22;40065;49.894;10.358;2023-02-18T23:02:50;11.00;99.90
54158;DHT22;40065;49.894;10.358;2023-02-18T23:07:52;11.00;99.90
54158;DHT22;40065;49.894;10.358;2023-02-18T23:12:54;11.00;99.90
54158;DHT22;40065;49.894;10.358;2023-02-18T23:17:55;11.00;99.90
54158;DHT22;40065;49.894;10.358;2023-02-18T23:22:58;11.00;99.90
54158;DHT22;40065;49.894;10.358;2023-02-18T23:27:59;10.90;99.90
54158;DHT22;40065;49.894;10.358;2023-02-18T23:33:01;10.90;99.90
54158;DHT22;40065;49.894;10.358;2023-02-18T23:38:03;11.00;99.90
54158;DHT22;40065;49.894;10.358;2023-02-18T23:43:05;10.80;99.90
54158;DHT22;40065;49.894;10.358;2023-02-18T23:48:07;10.70;99.90
54158;DHT22;40065;49.894;10.358;2023-02-18T23:53:09;10.70;99.90
54158;DHT22;40065;49.894;10.358;2023-02-18T23:58:11;10.60;99.90
